sensor_id;sensor_type;location;lat;lon;timestamp;temperature;humidity
47418;DHT22;61796;48.808;8.194;2022-09-13T00:01:18;23.00;71.60
47418;DHT22;61796;48.808;8.194;2022-09-13T00:03:01;23.00;71.50
47418;DHT22;61796;48.808;8.194;2022-09-13T00:04:43;23.00;71.40
47418;DHT22;61796;48.808;8.194;2022-09-13T00:06:25;23.00;71.50
47418;DHT22;61796;48.808;8.194;2022-09-13T00:08:10;23.00;71.50
47418;DHT22;61796;48.808;8.194;2022-09-13T00:09:53;23.00;71.00
47418;DHT22;61796;48.808;8.194;2022-09-13T00:11:35;23.00;72.20
47418;DHT22;61796;48.808;8.194;2022-09-13T00:13:17;23.00;71.60
47418;DHT22;61796;48.808;8.194;2022-09-13T00:14:59;23.00;71.70
47418;DHT22;61796;48.808;8.194;2022-09-13T00:16:40;23.00;71.60
47418;DHT22;61796;48.808;8.194;2022-09-13T00:18:22;23.00;71.60
47418;DHT22;61796;48.808;8.194;2022-09-13T00:20:05;23.00;72.20
47418;DHT22;61796;48.808;8.194;2022-09-13T00:21:47;23.00;71.90
47418;DHT22;61796;48.808;8.194;2022-09-13T00:23:29;23.00;71.60
47418;DHT22;61796;48.808;8.194;2022-09-13T00:25:12;23.00;71.90
47418;DHT22;61796;48.808;8.194;2022-09-13T00:26:54;23.00;71.70
47418;DHT22;61796;48.808;8.194;2022-09-13T00:31:08;23.00;71.90
47418;DHT22;61796;48.808;8.194;2022-09-13T00:32:50;23.00;71.30
47418;DHT22;61796;48.808;8.194;2022-09-13T00:34:32;23.00;71.90
47418;DHT22;61796;48.808;8.194;2022-09-13T00:36:14;23.00;71.90
47418;DHT22;61796;48.808;8.194;2022-09-13T00:37:58;23.10;72.00
47418;DHT22;61796;48.808;8.194;2022-09-13T00:39:40;23.00;71.40
47418;DHT22;61796;48.808;8.194;2022-09-13T00:41:23;23.00;72.00
47418;DHT22;61796;48.808;8.194;2022-09-13T00:43:11;23.00;71.90
47418;DHT22;61796;48.808;8.194;2022-09-13T00:44:58;23.00;71.90
47418;DHT22;61796;48.808;8.194;2022-09-13T00:46:43;23.00;72.10
47418;DHT22;61796;48.808;8.194;2022-09-13T00:48:26;23.00;71.40
47418;DHT22;61796;48.808;8.194;2022-09-13T00:50:17;23.00;72.00
47418;DHT22;61796;48.808;8.194;2022-09-13T00:52:27;23.00;72.00
47418;DHT22;61796;48.808;8.194;2022-09-13T00:54:12;23.00;72.20
47418;DHT22;61796;48.808;8.194;2022-09-13T00:55:59;23.00;72.20
47418;DHT22;61796;48.808;8.194;2022-09-13T00:57:43;23.00;72.10
47418;DHT22;61796;48.808;8.194;2022-09-13T00:59:27;23.00;71.60
47418;DHT22;61796;48.808;8.194;2022-09-13T01:01:13;23.00;72.20
47418;DHT22;61796;48.808;8.194;2022-09-13T01:03:00;23.00;72.20
47418;DHT22;61796;48.808;8.194;2022-09-13T01:04:43;23.00;72.20
47418;DHT22;61796;48.808;8.194;2022-09-13T01:06:27;23.00;72.20
47418;DHT22;61796;48.808;8.194;2022-09-13T01:08:11;23.00;72.30
47418;DHT22;61796;48.808;8.194;2022-09-13T01:09:54;23.00;71.80
47418;DHT22;61796;48.808;8.194;2022-09-13T01:11:43;23.00;72.40
47418;DHT22;61796;48.808;8.194;2022-09-13T01:13:29;23.00;72.30
47418;DHT22;61796;48.808;8.194;2022-09-13T01:15:12;23.00;72.40
47418;DHT22;61796;48.808;8.194;2022-09-13T01:16:54;23.00;72.40
47418;DHT22;61796;48.808;8.194;2022-09-13T01:18:36;23.00;71.90
47418;DHT22;61796;48.808;8.194;2022-09-13T01:20:18;23.00;72.50
47418;DHT22;61796;48.808;8.194;2022-09-13T01:24:46;23.00;72.50
47418;DHT22;61796;48.808;8.194;2022-09-13T01:26:52;23.00;72.50
47418;DHT22;61796;48.808;8.194;2022-09-13T01:31:01;23.00;72.60
47418;DHT22;61796;48.808;8.194;2022-09-13T01:35:10;23.00;72.60
47418;DHT22;61796;48.808;8.194;2022-09-13T01:37:11;23.00;72.60
47418;DHT22;61796;48.808;8.194;2022-09-13T01:39:19;23.00;72.00
47418;DHT22;61796;48.808;8.194;2022-09-13T01:41:20;23.00;72.60
47418;DHT22;61796;48.808;8.194;2022-09-13T01:43:19;23.00;72.50
47418;DHT22;61796;48.808;8.194;2022-09-13T01:45:13;23.00;72.70
47418;DHT22;61796;48.808;8.194;2022-09-13T01:47:04;23.00;72.60
47418;DHT22;61796;48.808;8.194;2022-09-13T01:48:58;23.00;72.20
47418;DHT22;61796;48.808;8.194;2022-09-13T01:50:45;23.00;72.70
47418;DHT22;61796;48.808;8.194;2022-09-13T01:52:31;23.00;72.60
47418;DHT22;61796;48.808;8.194;2022-09-13T01:54:20;23.00;72.60
47418;DHT22;61796;48.808;8.194;2022-09-13T01:56:11;23.00;72.70
47418;DHT22;61796;48.808;8.194;2022-09-13T01:58:02;23.00;72.60
47418;DHT22;61796;48.808;8.194;2022-09-13T01:59:49;23.00;71.90
47418;DHT22;61796;48.808;8.194;2022-09-13T02:01:35;23.00;72.50
47418;DHT22;61796;48.808;8.194;2022-09-13T02:03:28;23.00;72.60
47418;DHT22;61796;48.808;8.194;2022-09-13T02:05:14;23.00;72.70
47418;DHT22;61796;48.808;8.194;2022-09-13T02:07:01;23.00;72.70
47418;DHT22;61796;48.808;8.194;2022-09-13T02:08:46;23.00;72.20
47418;DHT22;61796;48.808;8.194;2022-09-13T02:10:33;23.00;72.80
47418;DHT22;61796;48.808;8.194;2022-09-13T02:12:18;23.00;72.80
47418;DHT22;61796;48.808;8.194;2022-09-13T02:14:04;23.00;72.80
47418;DHT22;61796;48.808;8.194;2022-09-13T02:15:50;23.00;72.80
47418;DHT22;61796;48.808;8.194;2022-09-13T02:17:36;23.00;72.90
47418;DHT22;61796;48.808;8.194;2022-09-13T02:19:34;23.00;72.30
47418;DHT22;61796;48.808;8.194;2022-09-13T02:21:20;23.00;72.90
47418;DHT22;61796;48.808;8.194;2022-09-13T02:23:07;23.00;72.90
47418;DHT22;61796;48.808;8.194;2022-09-13T02:24:53;23.00;72.80
47418;DHT22;61796;48.808;8.194;2022-09-13T02:26:38;23.00;72.90
47418;DHT22;61796;48.808;8.194;2022-09-13T02:28:26;23.00;72.40
47418;DHT22;61796;48.808;8.194;2022-09-13T02:30:11;23.00;73.00
47418;DHT22;61796;48.808;8.194;2022-09-13T02:31:55;23.00;72.90
47418;DHT22;61796;48.808;8.194;2022-09-13T02:33:43;23.00;72.90
47418;DHT22;61796;48.808;8.194;2022-09-13T02:35:33;23.00;72.80
47418;DHT22;61796;48.808;8.194;2022-09-13T02:37:16;23.00;73.00
47418;DHT22;61796;48.808;8.194;2022-09-13T02:38:59;23.00;72.50
47418;DHT22;61796;48.808;8.194;2022-09-13T02:40:47;23.00;73.10
47418;DHT22;61796;48.808;8.194;2022-09-13T02:42:42;23.00;72.90
47418;DHT22;61796;48.808;8.194;2022-09-13T02:44:30;23.00;73.10
47418;DHT22;61796;48.808;8.194;2022-09-13T02:46:22;23.00;73.10
47418;DHT22;61796;48.808;8.194;2022-09-13T02:48:09;23.00;73.10
47418;DHT22;61796;48.808;8.194;2022-09-13T02:50:04;23.00;72.50
47418;DHT22;61796;48.808;8.194;2022-09-13T02:51:54;23.00;72.70
47418;DHT22;61796;48.808;8.194;2022-09-13T02:53:40;23.00;73.20
47418;DHT22;61796;48.808;8.194;2022-09-13T02:55:28;23.00;73.10
47418;DHT22;61796;48.808;8.194;2022-09-13T02:57:16;23.00;73.10
47418;DHT22;61796;48.808;8.194;2022-09-13T02:59:02;23.00;72.50
47418;DHT22;61796;48.808;8.194;2022-09-13T03:00:47;23.00;73.20
47418;DHT22;61796;48.808;8.194;2022-09-13T03:02:31;23.00;73.30
47418;DHT22;61796;48.808;8.194;2022-09-13T03:04:14;23.00;73.10
47418;DHT22;61796;48.808;8.194;2022-09-13T03:06:07;23.00;73.20
47418;DHT22;61796;48.808;8.194;2022-09-13T03:07:50;23.00;73.10
47418;DHT22;61796;48.808;8.194;2022-09-13T03:09:33;23.00;72.70
47418;DHT22;61796;48.808;8.194;2022-09-13T03:11:17;23.00;73.30
47418;DHT22;61796;48.808;8.194;2022-09-13T03:15:41;23.00;73.20
47418;DHT22;61796;48.808;8.194;2022-09-13T03:17:38;23.00;73.30
47418;DHT22;61796;48.808;8.194;2022-09-13T03:19:33;23.00;72.60
47418;DHT22;61796;48.808;8.194;2022-09-13T03:21:31;23.00;73.40
47418;DHT22;61796;48.808;8.194;2022-09-13T03:23:43;23.00;73.30
47418;DHT22;61796;48.808;8.194;2022-09-13T03:25:34;23.00;73.40
47418;DHT22;61796;48.808;8.194;2022-09-13T03:27:27;23.00;73.30
47418;DHT22;61796;48.808;8.194;2022-09-13T03:29:25;23.00;72.80
47418;DHT22;61796;48.808;8.194;2022-09-13T03:31:11;23.00;73.50
47418;DHT22;61796;48.808;8.194;2022-09-13T03:33:02;23.00;73.70
47418;DHT22;61796;48.808;8.194;2022-09-13T03:34:50;23.10;73.70
47418;DHT22;61796;48.808;8.194;2022-09-13T03:36:35;23.10;73.80
47418;DHT22;61796;48.808;8.194;2022-09-13T03:38:20;23.00;73.90
47418;DHT22;61796;48.808;8.194;2022-09-13T03:40:08;23.00;73.60
47418;DHT22;61796;48.808;8.194;2022-09-13T03:41:54;23.00;73.90
47418;DHT22;61796;48.808;8.194;2022-09-13T03:43:41;23.00;73.90
47418;DHT22;61796;48.808;8.194;2022-09-13T03:45:29;23.00;73.80
47418;DHT22;61796;48.808;8.194;2022-09-13T03:47:13;23.00;73.70
47418;DHT22;61796;48.808;8.194;2022-09-13T03:48:59;23.00;73.10
47418;DHT22;61796;48.808;8.194;2022-09-13T03:50:42;23.10;73.70
47418;DHT22;61796;48.808;8.194;2022-09-13T03:52:26;23.00;73.60
47418;DHT22;61796;48.808;8.194;2022-09-13T03:54:09;23.00;73.60
47418;DHT22;61796;48.808;8.194;2022-09-13T03:55:53;23.00;73.70
47418;DHT22;61796;48.808;8.194;2022-09-13T03:57:36;23.00;74.30
47418;DHT22;61796;48.808;8.194;2022-09-13T03:59:17;23.00;73.10
47418;DHT22;61796;48.808;8.194;2022-09-13T04:00:59;23.00;73.70
47418;DHT22;61796;48.808;8.194;2022-09-13T04:02:42;23.00;73.60
47418;DHT22;61796;48.808;8.194;2022-09-13T04:04:23;23.00;73.60
47418;DHT22;61796;48.808;8.194;2022-09-13T04:06:06;23.00;73.70
47418;DHT22;61796;48.808;8.194;2022-09-13T04:07:48;23.00;73.80
47418;DHT22;61796;48.808;8.194;2022-09-13T04:09:30;23.00;73.20
47418;DHT22;61796;48.808;8.194;2022-09-13T04:11:13;23.00;73.70
47418;DHT22;61796;48.808;8.194;2022-09-13T04:12:55;23.00;73.70
47418;DHT22;61796;48.808;8.194;2022-09-13T04:14:37;23.00;73.80
47418;DHT22;61796;48.808;8.194;2022-09-13T04:16:19;23.00;73.70
47418;DHT22;61796;48.808;8.194;2022-09-13T04:18:01;23.00;73.80
47418;DHT22;61796;48.808;8.194;2022-09-13T04:19:43;23.00;73.20
47418;DHT22;61796;48.808;8.194;2022-09-13T04:21:25;23.00;73.80
47418;DHT22;61796;48.808;8.194;2022-09-13T04:23:07;23.00;73.70
47418;DHT22;61796;48.808;8.194;2022-09-13T04:24:49;23.00;73.70
47418;DHT22;61796;48.808;8.194;2022-09-13T04:26:32;23.00;73.70
47418;DHT22;61796;48.808;8.194;2022-09-13T04:28:15;23.00;73.80
47418;DHT22;61796;48.808;8.194;2022-09-13T04:29:57;23.00;73.10
47418;DHT22;61796;48.808;8.194;2022-09-13T04:31:39;23.00;73.50
47418;DHT22;61796;48.808;8.194;2022-09-13T04:33:21;23.00;73.70
47418;DHT22;61796;48.808;8.194;2022-09-13T04:35:04;23.00;73.70
47418;DHT22;61796;48.808;8.194;2022-09-13T04:36:46;23.00;73.60
47418;DHT22;61796;48.808;8.194;2022-09-13T04:38:27;23.00;73.10
47418;DHT22;61796;48.808;8.194;2022-09-13T04:40:10;23.00;73.60
47418;DHT22;61796;48.808;8.194;2022-09-13T04:41:53;23.00;73.60
47418;DHT22;61796;48.808;8.194;2022-09-13T04:43:35;23.00;73.70
47418;DHT22;61796;48.808;8.194;2022-09-13T04:45:30;23.00;73.80
47418;DHT22;61796;48.808;8.194;2022-09-13T04:47:12;23.00;73.70
47418;DHT22;61796;48.808;8.194;2022-09-13T04:48:54;23.00;73.10
47418;DHT22;61796;48.808;8.194;2022-09-13T04:50:36;23.00;73.80
47418;DHT22;61796;48.808;8.194;2022-09-13T04:52:21;23.00;73.80
47418;DHT22;61796;48.808;8.194;2022-09-13T04:54:03;23.00;73.80
47418;DHT22;61796;48.808;8.194;2022-09-13T04:55:45;23.00;73.80
47418;DHT22;61796;48.808;8.194;2022-09-13T04:57:28;23.00;73.90
47418;DHT22;61796;48.808;8.194;2022-09-13T04:59:13;23.00;73.40
47418;DHT22;61796;48.808;8.194;2022-09-13T05:00:59;23.00;74.00
47418;DHT22;61796;48.808;8.194;2022-09-13T05:02:41;23.00;73.90
47418;DHT22;61796;48.808;8.194;2022-09-13T05:04:22;23.00;74.00
47418;DHT22;61796;48.808;8.194;2022-09-13T05:06:06;23.00;74.50
47418;DHT22;61796;48.808;8.194;2022-09-13T05:07:49;23.00;73.90
47418;DHT22;61796;48.808;8.194;2022-09-13T05:09:31;23.00;73.40
47418;DHT22;61796;48.808;8.194;2022-09-13T05:11:12;23.00;74.00
47418;DHT22;61796;48.808;8.194;2022-09-13T05:12:56;23.00;73.80
47418;DHT22;61796;48.808;8.194;2022-09-13T05:14:38;23.00;73.70
47418;DHT22;61796;48.808;8.194;2022-09-13T05:16:20;23.00;73.80
47418;DHT22;61796;48.808;8.194;2022-09-13T05:18:02;23.00;74.00
47418;DHT22;61796;48.808;8.194;2022-09-13T05:19:44;23.00;73.20
47418;DHT22;61796;48.808;8.194;2022-09-13T05:21:25;23.00;74.00
47418;DHT22;61796;48.808;8.194;2022-09-13T05:23:08;23.00;73.90
47418;DHT22;61796;48.808;8.194;2022-09-13T05:24:49;23.00;73.90
47418;DHT22;61796;48.808;8.194;2022-09-13T05:26:31;23.00;74.00
47418;DHT22;61796;48.808;8.194;2022-09-13T05:28:14;23.00;73.30
47418;DHT22;61796;48.808;8.194;2022-09-13T05:29:56;23.00;73.30
47418;DHT22;61796;48.808;8.194;2022-09-13T05:31:39;23.00;73.80
47418;DHT22;61796;48.808;8.194;2022-09-13T05:33:22;23.00;73.90
47418;DHT22;61796;48.808;8.194;2022-09-13T05:35:04;23.00;73.90
47418;DHT22;61796;48.808;8.194;2022-09-13T05:36:46;23.00;73.90
47418;DHT22;61796;48.808;8.194;2022-09-13T05:38:34;23.00;73.90
47418;DHT22;61796;48.808;8.194;2022-09-13T05:40:16;23.00;73.30
47418;DHT22;61796;48.808;8.194;2022-09-13T05:41:58;23.00;73.80
47418;DHT22;61796;48.808;8.194;2022-09-13T05:43:41;23.00;73.90
47418;DHT22;61796;48.808;8.194;2022-09-13T05:45:22;23.00;73.90
47418;DHT22;61796;48.808;8.194;2022-09-13T05:47:04;23.00;74.00
47418;DHT22;61796;48.808;8.194;2022-09-13T05:48:46;23.00;73.90
47418;DHT22;61796;48.808;8.194;2022-09-13T05:50:28;23.00;73.30
47418;DHT22;61796;48.808;8.194;2022-09-13T05:52:30;23.00;73.90
47418;DHT22;61796;48.808;8.194;2022-09-13T05:54:12;23.00;73.90
47418;DHT22;61796;48.808;8.194;2022-09-13T05:55:54;23.00;73.90
47418;DHT22;61796;48.808;8.194;2022-09-13T05:57:36;23.00;73.80
47418;DHT22;61796;48.808;8.194;2022-09-13T05:59:19;23.00;73.40
47418;DHT22;61796;48.808;8.194;2022-09-13T06:01:01;23.00;73.70
47418;DHT22;61796;48.808;8.194;2022-09-13T06:02:42;23.00;73.90
47418;DHT22;61796;48.808;8.194;2022-09-13T06:04:24;23.00;73.80
47418;DHT22;61796;48.808;8.194;2022-09-13T06:06:07;23.00;73.80
47418;DHT22;61796;48.808;8.194;2022-09-13T06:07:49;23.00;73.80
47418;DHT22;61796;48.808;8.194;2022-09-13T06:09:30;23.00;73.30
47418;DHT22;61796;48.808;8.194;2022-09-13T06:11:14;23.00;73.80
47418;DHT22;61796;48.808;8.194;2022-09-13T06:12:55;23.00;73.90
47418;DHT22;61796;48.808;8.194;2022-09-13T06:14:39;23.00;73.90
47418;DHT22;61796;48.808;8.194;2022-09-13T06:16:21;23.00;74.00
47418;DHT22;61796;48.808;8.194;2022-09-13T06:18:03;23.00;73.90
47418;DHT22;61796;48.808;8.194;2022-09-13T06:19:45;23.00;73.20
47418;DHT22;61796;48.808;8.194;2022-09-13T06:21:27;23.00;73.70
47418;DHT22;61796;48.808;8.194;2022-09-13T06:23:10;23.00;73.80
47418;DHT22;61796;48.808;8.194;2022-09-13T06:24:52;23.00;73.80
47418;DHT22;61796;48.808;8.194;2022-09-13T06:26:33;23.00;73.70
47418;DHT22;61796;48.808;8.194;2022-09-13T06:28:15;23.00;73.90
47418;DHT22;61796;48.808;8.194;2022-09-13T06:29:58;23.00;73.30
47418;DHT22;61796;48.808;8.194;2022-09-13T06:31:40;23.00;73.70
47418;DHT22;61796;48.808;8.194;2022-09-13T06:33:22;23.00;73.80
47418;DHT22;61796;48.808;8.194;2022-09-13T06:35:05;23.00;73.90
47418;DHT22;61796;48.808;8.194;2022-09-13T06:38:29;23.00;73.30
47418;DHT22;61796;48.808;8.194;2022-09-13T06:40:11;23.00;73.40
47418;DHT22;61796;48.808;8.194;2022-09-13T06:41:52;23.00;73.90
47418;DHT22;61796;48.808;8.194;2022-09-13T06:43:34;23.00;73.90
47418;DHT22;61796;48.808;8.194;2022-09-13T06:45:18;23.00;73.80
47418;DHT22;61796;48.808;8.194;2022-09-13T06:47:00;22.90;73.10
47418;DHT22;61796;48.808;8.194;2022-09-13T06:48:43;23.00;74.00
47418;DHT22;61796;48.808;8.194;2022-09-13T06:50:25;23.00;73.40
47418;DHT22;61796;48.808;8.194;2022-09-13T06:52:07;23.00;74.00
47418;DHT22;61796;48.808;8.194;2022-09-13T06:53:50;23.00;74.00
47418;DHT22;61796;48.808;8.194;2022-09-13T06:55:32;23.00;74.00
47418;DHT22;61796;48.808;8.194;2022-09-13T06:57:13;23.00;73.90
47418;DHT22;61796;48.808;8.194;2022-09-13T06:58:57;23.00;73.60
47418;DHT22;61796;48.808;8.194;2022-09-13T07:00:41;23.00;74.10
47418;DHT22;61796;48.808;8.194;2022-09-13T07:02:23;22.90;74.00
47418;DHT22;61796;48.808;8.194;2022-09-13T07:04:06;23.00;74.10
47418;DHT22;61796;48.808;8.194;2022-09-13T07:05:48;23.00;74.00
47418;DHT22;61796;48.808;8.194;2022-09-13T07:07:30;23.00;74.10
47418;DHT22;61796;48.808;8.194;2022-09-13T07:09:14;23.00;73.60
47418;DHT22;61796;48.808;8.194;2022-09-13T07:10:56;23.00;73.90
47418;DHT22;61796;48.808;8.194;2022-09-13T07:12:39;23.00;74.40
47418;DHT22;61796;48.808;8.194;2022-09-13T07:14:22;23.00;74.20
47418;DHT22;61796;48.808;8.194;2022-09-13T07:16:07;23.00;74.30
47418;DHT22;61796;48.808;8.194;2022-09-13T07:17:49;23.00;74.10
47418;DHT22;61796;48.808;8.194;2022-09-13T07:19:31;23.00;73.80
47418;DHT22;61796;48.808;8.194;2022-09-13T07:21:13;23.00;74.40
47418;DHT22;61796;48.808;8.194;2022-09-13T07:22:55;23.00;74.40
47418;DHT22;61796;48.808;8.194;2022-09-13T07:24:36;23.00;74.30
47418;DHT22;61796;48.808;8.194;2022-09-13T07:26:18;23.10;74.30
47418;DHT22;61796;48.808;8.194;2022-09-13T07:28:00;23.00;74.50
47418;DHT22;61796;48.808;8.194;2022-09-13T07:29:42;23.00;74.00
47418;DHT22;61796;48.808;8.194;2022-09-13T07:31:25;23.00;74.60
47418;DHT22;61796;48.808;8.194;2022-09-13T07:33:08;23.00;74.50
47418;DHT22;61796;48.808;8.194;2022-09-13T07:34:49;23.00;74.60
47418;DHT22;61796;48.808;8.194;2022-09-13T07:36:33;23.00;74.60
47418;DHT22;61796;48.808;8.194;2022-09-13T07:38:15;23.00;74.60
47418;DHT22;61796;48.808;8.194;2022-09-13T07:39:56;23.00;74.00
47418;DHT22;61796;48.808;8.194;2022-09-13T07:41:38;23.00;74.60
47418;DHT22;61796;48.808;8.194;2022-09-13T07:43:20;23.10;74.60
47418;DHT22;61796;48.808;8.194;2022-09-13T07:45:02;23.00;74.60
47418;DHT22;61796;48.808;8.194;2022-09-13T07:46:45;23.00;74.60
47418;DHT22;61796;48.808;8.194;2022-09-13T07:48:28;23.00;74.50
47418;DHT22;61796;48.808;8.194;2022-09-13T07:50:14;23.00;74.00
47418;DHT22;61796;48.808;8.194;2022-09-13T07:51:56;23.00;74.60
47418;DHT22;61796;48.808;8.194;2022-09-13T07:53:39;23.00;74.60
47418;DHT22;61796;48.808;8.194;2022-09-13T07:55:21;23.10;74.70
47418;DHT22;61796;48.808;8.194;2022-09-13T07:57:03;23.10;74.60
47418;DHT22;61796;48.808;8.194;2022-09-13T07:58:46;23.00;74.60
47418;DHT22;61796;48.808;8.194;2022-09-13T08:00:28;23.00;74.00
47418;DHT22;61796;48.808;8.194;2022-09-13T08:02:11;23.10;74.60
47418;DHT22;61796;48.808;8.194;2022-09-13T08:03:55;23.10;74.60
47418;DHT22;61796;48.808;8.194;2022-09-13T08:05:38;23.00;74.60
47418;DHT22;61796;48.808;8.194;2022-09-13T08:07:19;23.10;74.50
47418;DHT22;61796;48.808;8.194;2022-09-13T08:09:02;23.10;74.00
47418;DHT22;61796;48.808;8.194;2022-09-13T08:10:44;23.00;74.50
47418;DHT22;61796;48.808;8.194;2022-09-13T08:12:30;23.10;74.60
47418;DHT22;61796;48.808;8.194;2022-09-13T08:14:14;23.10;74.60
47418;DHT22;61796;48.808;8.194;2022-09-13T08:15:56;23.10;74.60
47418;DHT22;61796;48.808;8.194;2022-09-13T08:17:39;23.00;74.60
47418;DHT22;61796;48.808;8.194;2022-09-13T08:19:21;23.10;74.10
47418;DHT22;61796;48.808;8.194;2022-09-13T08:21:03;23.10;74.60
47418;DHT22;61796;48.808;8.194;2022-09-13T08:22:44;23.00;74.50
47418;DHT22;61796;48.808;8.194;2022-09-13T08:24:26;23.10;74.60
47418;DHT22;61796;48.808;8.194;2022-09-13T08:26:08;23.10;74.60
47418;DHT22;61796;48.808;8.194;2022-09-13T08:27:50;23.10;74.70
47418;DHT22;61796;48.808;8.194;2022-09-13T08:29:32;23.10;74.10
47418;DHT22;61796;48.808;8.194;2022-09-13T08:31:15;23.10;74.60
47418;DHT22;61796;48.808;8.194;2022-09-13T08:32:58;23.10;74.60
47418;DHT22;61796;48.808;8.194;2022-09-13T08:34:40;23.10;74.60
47418;DHT22;61796;48.808;8.194;2022-09-13T08:36:24;23.10;74.70
47418;DHT22;61796;48.808;8.194;2022-09-13T08:38:06;23.10;74.70
47418;DHT22;61796;48.808;8.194;2022-09-13T08:39:49;23.10;74.00
47418;DHT22;61796;48.808;8.194;2022-09-13T08:41:58;23.10;74.60
47418;DHT22;61796;48.808;8.194;2022-09-13T08:43:47;23.10;74.60
47418;DHT22;61796;48.808;8.194;2022-09-13T08:45:30;23.10;74.60
47418;DHT22;61796;48.808;8.194;2022-09-13T08:47:37;23.10;74.50
47418;DHT22;61796;48.808;8.194;2022-09-13T08:49:23;23.10;74.00
47418;DHT22;61796;48.808;8.194;2022-09-13T08:51:12;23.10;74.60
47418;DHT22;61796;48.808;8.194;2022-09-13T08:53:04;23.10;74.50
47418;DHT22;61796;48.808;8.194;2022-09-13T08:54:47;23.10;74.50
47418;DHT22;61796;48.808;8.194;2022-09-13T08:56:37;23.10;74.50
47418;DHT22;61796;48.808;8.194;2022-09-13T09:00:42;23.10;74.10
47418;DHT22;61796;48.808;8.194;2022-09-13T09:02:40;23.10;74.70
47418;DHT22;61796;48.808;8.194;2022-09-13T09:04:35;23.10;74.70
47418;DHT22;61796;48.808;8.194;2022-09-13T09:06:19;23.10;74.70
47418;DHT22;61796;48.808;8.194;2022-09-13T09:08:03;23.10;74.70
47418;DHT22;61796;48.808;8.194;2022-09-13T09:09:51;23.10;74.10
47418;DHT22;61796;48.808;8.194;2022-09-13T09:11:36;23.10;74.70
47418;DHT22;61796;48.808;8.194;2022-09-13T09:13:26;23.10;74.60
47418;DHT22;61796;48.808;8.194;2022-09-13T09:15:15;23.00;74.60
47418;DHT22;61796;48.808;8.194;2022-09-13T09:17:01;23.10;74.70
47418;DHT22;61796;48.808;8.194;2022-09-13T09:18:44;23.10;74.60
47418;DHT22;61796;48.808;8.194;2022-09-13T09:20:31;23.10;74.10
47418;DHT22;61796;48.808;8.194;2022-09-13T09:22:17;23.10;74.70
47418;DHT22;61796;48.808;8.194;2022-09-13T09:24:01;23.10;74.70
47418;DHT22;61796;48.808;8.194;2022-09-13T09:25:44;23.10;74.60
47418;DHT22;61796;48.808;8.194;2022-09-13T09:27:29;23.10;74.70
47418;DHT22;61796;48.808;8.194;2022-09-13T09:29:16;23.10;74.10
47418;DHT22;61796;48.808;8.194;2022-09-13T09:31:07;23.10;74.70
47418;DHT22;61796;48.808;8.194;2022-09-13T09:33:21;23.10;74.70
47418;DHT22;61796;48.808;8.194;2022-09-13T09:35:12;23.10;74.10
47418;DHT22;61796;48.808;8.194;2022-09-13T09:37:03;23.10;74.70
47418;DHT22;61796;48.808;8.194;2022-09-13T09:38:48;23.10;74.80
47418;DHT22;61796;48.808;8.194;2022-09-13T09:40:31;23.10;74.30
47418;DHT22;61796;48.808;8.194;2022-09-13T09:42:16;23.10;74.80
47418;DHT22;61796;48.808;8.194;2022-09-13T09:44:06;23.10;74.80
47418;DHT22;61796;48.808;8.194;2022-09-13T09:45:56;23.10;74.80
47418;DHT22;61796;48.808;8.194;2022-09-13T09:47:43;23.10;74.80
47418;DHT22;61796;48.808;8.194;2022-09-13T09:49:32;23.10;74.30
47418;DHT22;61796;48.808;8.194;2022-09-13T09:51:17;23.10;74.90
47418;DHT22;61796;48.808;8.194;2022-09-13T09:53:05;23.10;74.80
47418;DHT22;61796;48.808;8.194;2022-09-13T09:54:48;23.10;74.70
47418;DHT22;61796;48.808;8.194;2022-09-13T09:56:32;23.20;70.60
47418;DHT22;61796;48.808;8.194;2022-09-13T09:58:14;23.10;73.80
47418;DHT22;61796;48.808;8.194;2022-09-13T10:00:09;23.10;73.90
47418;DHT22;61796;48.808;8.194;2022-09-13T10:01:51;23.20;72.40
47418;DHT22;61796;48.808;8.194;2022-09-13T10:03:33;23.20;72.40
47418;DHT22;61796;48.808;8.194;2022-09-13T10:05:17;23.10;71.40
47418;DHT22;61796;48.808;8.194;2022-09-13T10:07:24;23.20;74.00
47418;DHT22;61796;48.808;8.194;2022-09-13T10:09:15;23.10;73.60
47418;DHT22;61796;48.808;8.194;2022-09-13T10:10:58;23.10;74.20
47418;DHT22;61796;48.808;8.194;2022-09-13T10:12:41;23.10;74.20
47418;DHT22;61796;48.808;8.194;2022-09-13T10:14:34;23.10;74.10
47418;DHT22;61796;48.808;8.194;2022-09-13T10:16:24;23.10;73.80
47418;DHT22;61796;48.808;8.194;2022-09-13T10:18:14;23.10;73.70
47418;DHT22;61796;48.808;8.194;2022-09-13T10:20:21;23.10;72.90
47418;DHT22;61796;48.808;8.194;2022-09-13T10:22:04;23.10;73.30
47418;DHT22;61796;48.808;8.194;2022-09-13T10:23:47;23.20;73.50
47418;DHT22;61796;48.808;8.194;2022-09-13T10:25:30;23.10;73.30
47418;DHT22;61796;48.808;8.194;2022-09-13T10:27:25;23.10;73.30
47418;DHT22;61796;48.808;8.194;2022-09-13T10:29:14;23.10;70.80
47418;DHT22;61796;48.808;8.194;2022-09-13T10:31:00;23.10;70.20
47418;DHT22;61796;48.808;8.194;2022-09-13T10:32:45;23.20;72.30
47418;DHT22;61796;48.808;8.194;2022-09-13T10:34:36;23.20;72.40
47418;DHT22;61796;48.808;8.194;2022-09-13T10:36:19;23.20;69.00
47418;DHT22;61796;48.808;8.194;2022-09-13T10:38:27;23.10;70.10
47418;DHT22;61796;48.808;8.194;2022-09-13T10:40:17;23.10;68.90
47418;DHT22;61796;48.808;8.194;2022-09-13T10:42:02;23.10;70.60
47418;DHT22;61796;48.808;8.194;2022-09-13T10:43:46;23.20;70.50
47418;DHT22;61796;48.808;8.194;2022-09-13T10:45:29;23.20;70.50
47418;DHT22;61796;48.808;8.194;2022-09-13T10:47:18;23.20;70.60
47418;DHT22;61796;48.808;8.194;2022-09-13T10:49:00;23.20;70.30
47418;DHT22;61796;48.808;8.194;2022-09-13T10:50:58;23.20;71.50
47418;DHT22;61796;48.808;8.194;2022-09-13T10:52:42;23.20;71.50
47418;DHT22;61796;48.808;8.194;2022-09-13T10:54:25;23.20;70.90
47418;DHT22;61796;48.808;8.194;2022-09-13T10:56:19;23.10;69.10
47418;DHT22;61796;48.808;8.194;2022-09-13T10:58:20;23.10;70.20
47418;DHT22;61796;48.808;8.194;2022-09-13T11:00:05;23.10;70.30
47418;DHT22;61796;48.808;8.194;2022-09-13T11:04:36;23.10;71.40
47418;DHT22;61796;48.808;8.194;2022-09-13T11:06:28;23.10;71.80
47418;DHT22;61796;48.808;8.194;2022-09-13T11:08:29;23.10;72.00
47418;DHT22;61796;48.808;8.194;2022-09-13T11:10:19;23.10;71.50
47418;DHT22;61796;48.808;8.194;2022-09-13T11:12:07;23.10;72.30
47418;DHT22;61796;48.808;8.194;2022-09-13T11:14:04;23.10;72.30
47418;DHT22;61796;48.808;8.194;2022-09-13T11:15:55;23.10;72.20
47418;DHT22;61796;48.808;8.194;2022-09-13T11:17:58;23.10;72.10
47418;DHT22;61796;48.808;8.194;2022-09-13T11:19:55;23.10;71.90
47418;DHT22;61796;48.808;8.194;2022-09-13T11:21:51;23.10;72.50
47418;DHT22;61796;48.808;8.194;2022-09-13T11:24:03;23.10;72.50
47418;DHT22;61796;48.808;8.194;2022-09-13T11:25:56;23.20;72.60
47418;DHT22;61796;48.808;8.194;2022-09-13T11:27:48;23.20;72.60